This is the latest recevied weather packets stored in our database for station/object CR7BQX-11. If no packets are shown the sender has not sent any weather packets the latest 10 day(s).
| Time | Temp. | Humidity | Pressure | Rain* | Wind** | Luminosity | Snow |
|---|---|---|---|---|---|---|---|
| 1777479219 | 21.67° C | 56% | 996.6 hPa | - | - | - | - |
| 1777478323 | 21.67° C | 55% | 996.5 hPa | - | - | - | - |
| 1777477422 | 22.22° C | 57% | 996.5 hPa | - | - | - | - |
| 1777476522 | 23.89° C | 51% | 995.6 hPa | - | - | - | - |
| 1777475622 | 23.89° C | 52% | 995.6 hPa | - | - | - | - |
| 1777474722 | 23.33° C | 52% | 995.6 hPa | - | - | - | - |
| 1777473822 | 23.89° C | 53% | 995.5 hPa | - | - | - | - |
| 1777472922 | 23.33° C | 52% | 995.7 hPa | - | - | - | - |
| 1777472021 | 23.33° C | 51% | 995.9 hPa | - | - | - | - |
| 1777471121 | 23.33° C | 56% | 995.9 hPa | - | - | - | - |
| 1777470221 | 22.78° C | 58% | 995.8 hPa | - | - | - | - |
| 1777469321 | 23.89° C | 54% | 995.6 hPa | - | - | - | - |
| 1777468422 | 24.44° C | 53% | 995.7 hPa | - | - | - | - |
| 1777467521 | 24.44° C | 53% | 995.5 hPa | - | - | - | - |
| 1777466620 | 24.44° C | 53% | 995.6 hPa | - | - | - | - |
| 1777465720 | 24.44° C | 53% | 995.4 hPa | - | - | - | - |
| 1777464820 | 24.44° C | 53% | 995.1 hPa | - | - | - | - |
| 1777463920 | 24.44° C | 53% | 995.8 hPa | - | - | - | - |
| 1777463020 | 24.44° C | 53% | 995.9 hPa | - | - | - | - |
| 1777461219 | 24.44° C | 53% | 996.2 hPa | - | - | - | - |
| 1777460319 | 24.44° C | 53% | 995.9 hPa | - | - | - | - |
| 1777459419 | 24.44° C | 53% | 995.9 hPa | - | - | - | - |
| 1777458519 | 24.44° C | 53% | 995.9 hPa | - | - | - | - |
| 1777457619 | 24.44° C | 54% | 995.6 hPa | - | - | - | - |
| 1777456723 | 24.44° C | 54% | 995.7 hPa | - | - | - | - |
* Rain since midnight (hover to see other rain measurements)
** Current wind speed in m/s (hover to see current wind gust speed)